sensor_id;sensor_type;location;lat;lon;timestamp;temperature;humidity
7296;DHT22;40758;54.038;11.684;2022-12-07T00:01:45;2.40;99.90
7296;DHT22;40758;54.038;11.684;2022-12-07T00:04:16;2.30;99.90
7296;DHT22;40758;54.038;11.684;2022-12-07T00:06:52;2.30;99.90
7296;DHT22;40758;54.038;11.684;2022-12-07T00:09:28;2.30;99.90
7296;DHT22;40758;54.038;11.684;2022-12-07T00:11:56;2.30;99.90
7296;DHT22;40758;54.038;11.684;2022-12-07T00:14:26;2.20;99.90
7296;DHT22;40758;54.038;11.684;2022-12-07T00:16:55;2.20;99.90
7296;DHT22;40758;54.038;11.684;2022-12-07T00:19:24;2.20;99.90
7296;DHT22;40758;54.038;11.684;2022-12-07T00:21:53;2.20;99.90
7296;DHT22;40758;54.038;11.684;2022-12-07T00:24:25;2.20;99.90
7296;DHT22;40758;54.038;11.684;2022-12-07T00:26:58;2.20;99.90
7296;DHT22;40758;54.038;11.684;2022-12-07T00:29:27;2.20;99.90
7296;DHT22;40758;54.038;11.684;2022-12-07T00:31:56;2.20;99.90
7296;DHT22;40758;54.038;11.684;2022-12-07T00:34:29;2.30;99.90
7296;DHT22;40758;54.038;11.684;2022-12-07T00:36:59;2.30;99.90
7296;DHT22;40758;54.038;11.684;2022-12-07T00:39:30;2.30;99.90
7296;DHT22;40758;54.038;11.684;2022-12-07T00:42:02;2.30;99.90
7296;DHT22;40758;54.038;11.684;2022-12-07T00:44:31;2.30;99.90
7296;DHT22;40758;54.038;11.684;2022-12-07T00:47:01;2.30;99.90
7296;DHT22;40758;54.038;11.684;2022-12-07T00:49:32;2.30;99.90
7296;DHT22;40758;54.038;11.684;2022-12-07T00:52:01;2.30;99.90
7296;DHT22;40758;54.038;11.684;2022-12-07T00:54:39;2.40;99.90
7296;DHT22;40758;54.038;11.684;2022-12-07T00:57:09;2.30;99.90
7296;DHT22;40758;54.038;11.684;2022-12-07T00:59:40;2.40;99.90
7296;DHT22;40758;54.038;11.684;2022-12-07T01:02:10;2.30;99.90
7296;DHT22;40758;54.038;11.684;2022-12-07T01:04:39;2.30;99.90
7296;DHT22;40758;54.038;11.684;2022-12-07T01:07:11;2.30;99.90
7296;DHT22;40758;54.038;11.684;2022-12-07T01:09:42;2.30;99.90
7296;DHT22;40758;54.038;11.684;2022-12-07T01:12:15;2.40;99.90
7296;DHT22;40758;54.038;11.684;2022-12-07T01:14:44;2.40;99.90
7296;DHT22;40758;54.038;11.684;2022-12-07T01:17:15;2.40;99.90
7296;DHT22;40758;54.038;11.684;2022-12-07T01:19:44;2.40;99.90
7296;DHT22;40758;54.038;11.684;2022-12-07T01:22:18;2.40;99.90
7296;DHT22;40758;54.038;11.684;2022-12-07T01:24:49;2.40;99.90
7296;DHT22;40758;54.038;11.684;2022-12-07T01:27:22;2.50;99.90
7296;DHT22;40758;54.038;11.684;2022-12-07T01:30:00;2.50;99.90
7296;DHT22;40758;54.038;11.684;2022-12-07T01:32:33;2.50;99.90
7296;DHT22;40758;54.038;11.684;2022-12-07T01:35:04;2.50;99.90
7296;DHT22;40758;54.038;11.684;2022-12-07T01:37:37;2.50;99.90
7296;DHT22;40758;54.038;11.684;2022-12-07T01:40:11;2.50;99.90
7296;DHT22;40758;54.038;11.684;2022-12-07T01:42:44;2.50;99.90
7296;DHT22;40758;54.038;11.684;2022-12-07T01:45:38;2.50;99.90
7296;DHT22;40758;54.038;11.684;2022-12-07T01:48:15;2.60;99.90
7296;DHT22;40758;54.038;11.684;2022-12-07T01:50:52;2.60;99.90
7296;DHT22;40758;54.038;11.684;2022-12-07T01:53:29;2.60;99.90
7296;DHT22;40758;54.038;11.684;2022-12-07T01:56:06;2.60;99.90
7296;DHT22;40758;54.038;11.684;2022-12-07T01:58:41;2.60;99.90
7296;DHT22;40758;54.038;11.684;2022-12-07T02:01:11;2.60;99.90
7296;DHT22;40758;54.038;11.684;2022-12-07T02:03:45;2.60;99.90
7296;DHT22;40758;54.038;11.684;2022-12-07T02:06:22;2.70;99.90
7296;DHT22;40758;54.038;11.684;2022-12-07T02:08:58;2.70;99.90
7296;DHT22;40758;54.038;11.684;2022-12-07T02:11:29;2.70;99.90
7296;DHT22;40758;54.038;11.684;2022-12-07T02:14:03;2.70;99.90
7296;DHT22;40758;54.038;11.684;2022-12-07T02:16:41;2.70;99.90
7296;DHT22;40758;54.038;11.684;2022-12-07T02:19:45;2.70;99.90
7296;DHT22;40758;54.038;11.684;2022-12-07T02:23:00;2.70;99.90
7296;DHT22;40758;54.038;11.684;2022-12-07T02:26:17;2.70;99.90
7296;DHT22;40758;54.038;11.684;2022-12-07T02:29:24;2.80;99.90
7296;DHT22;40758;54.038;11.684;2022-12-07T02:32:08;2.80;99.90
7296;DHT22;40758;54.038;11.684;2022-12-07T02:34:50;2.90;99.90
7296;DHT22;40758;54.038;11.684;2022-12-07T02:37:41;2.90;99.90
7296;DHT22;40758;54.038;11.684;2022-12-07T02:40:31;2.90;99.90
7296;DHT22;40758;54.038;11.684;2022-12-07T02:43:13;2.90;99.90
7296;DHT22;40758;54.038;11.684;2022-12-07T02:46:02;2.90;99.90
7296;DHT22;40758;54.038;11.684;2022-12-07T02:48:37;2.90;99.90
7296;DHT22;40758;54.038;11.684;2022-12-07T02:51:14;2.90;99.90
7296;DHT22;40758;54.038;11.684;2022-12-07T02:53:44;2.90;99.90
7296;DHT22;40758;54.038;11.684;2022-12-07T02:56:35;2.90;99.90
7296;DHT22;40758;54.038;11.684;2022-12-07T02:59:19;2.90;99.90
7296;DHT22;40758;54.038;11.684;2022-12-07T03:02:09;2.90;99.90
7296;DHT22;40758;54.038;11.684;2022-12-07T03:05:09;3.00;99.90
7296;DHT22;40758;54.038;11.684;2022-12-07T03:07:53;3.00;99.90
7296;DHT22;40758;54.038;11.684;2022-12-07T03:10:38;3.10;99.90
7296;DHT22;40758;54.038;11.684;2022-12-07T03:13:24;3.10;99.90
7296;DHT22;40758;54.038;11.684;2022-12-07T03:16:05;3.10;99.90
7296;DHT22;40758;54.038;11.684;2022-12-07T03:18:49;3.20;99.90
7296;DHT22;40758;54.038;11.684;2022-12-07T03:21:31;3.20;99.90
7296;DHT22;40758;54.038;11.684;2022-12-07T03:24:18;3.20;99.90
7296;DHT22;40758;54.038;11.684;2022-12-07T03:27:06;3.20;99.90
7296;DHT22;40758;54.038;11.684;2022-12-07T03:29:45;3.30;99.90
7296;DHT22;40758;54.038;11.684;2022-12-07T03:32:30;3.40;99.90
7296;DHT22;40758;54.038;11.684;2022-12-07T03:35:11;3.50;99.90
7296;DHT22;40758;54.038;11.684;2022-12-07T03:37:51;3.70;99.90
7296;DHT22;40758;54.038;11.684;2022-12-07T03:40:28;3.80;99.90
7296;DHT22;40758;54.038;11.684;2022-12-07T03:43:03;3.90;99.90
7296;DHT22;40758;54.038;11.684;2022-12-07T03:45:40;4.00;99.90
7296;DHT22;40758;54.038;11.684;2022-12-07T03:48:33;4.00;99.90
7296;DHT22;40758;54.038;11.684;2022-12-07T03:51:13;4.10;99.90
7296;DHT22;40758;54.038;11.684;2022-12-07T03:54:07;4.10;99.90
7296;DHT22;40758;54.038;11.684;2022-12-07T03:56:42;4.20;99.90
7296;DHT22;40758;54.038;11.684;2022-12-07T03:59:15;4.20;99.90
7296;DHT22;40758;54.038;11.684;2022-12-07T04:01:52;4.20;99.90
7296;DHT22;40758;54.038;11.684;2022-12-07T04:04:26;4.10;99.90
7296;DHT22;40758;54.038;11.684;2022-12-07T04:06:57;4.10;99.90
7296;DHT22;40758;54.038;11.684;2022-12-07T04:09:28;4.10;99.90
7296;DHT22;40758;54.038;11.684;2022-12-07T04:11:57;4.10;99.90
7296;DHT22;40758;54.038;11.684;2022-12-07T04:14:28;4.10;99.90
7296;DHT22;40758;54.038;11.684;2022-12-07T04:16:58;4.10;99.90
7296;DHT22;40758;54.038;11.684;2022-12-07T04:19:32;4.10;99.90
7296;DHT22;40758;54.038;11.684;2022-12-07T04:22:05;4.10;99.90
7296;DHT22;40758;54.038;11.684;2022-12-07T04:24:36;4.10;99.90
7296;DHT22;40758;54.038;11.684;2022-12-07T04:27:05;4.10;99.90
7296;DHT22;40758;54.038;11.684;2022-12-07T04:29:37;4.20;99.90
7296;DHT22;40758;54.038;11.684;2022-12-07T04:32:06;4.20;99.90
7296;DHT22;40758;54.038;11.684;2022-12-07T04:34:38;4.20;99.90
7296;DHT22;40758;54.038;11.684;2022-12-07T04:37:09;4.20;99.90
7296;DHT22;40758;54.038;11.684;2022-12-07T04:39:38;4.20;99.90
7296;DHT22;40758;54.038;11.684;2022-12-07T04:42:11;4.30;99.90
7296;DHT22;40758;54.038;11.684;2022-12-07T04:44:43;4.30;99.90
7296;DHT22;40758;54.038;11.684;2022-12-07T04:47:14;4.30;99.90
7296;DHT22;40758;54.038;11.684;2022-12-07T04:49:47;4.30;99.90
7296;DHT22;40758;54.038;11.684;2022-12-07T04:52:17;4.30;99.90
7296;DHT22;40758;54.038;11.684;2022-12-07T04:54:53;4.20;99.90
7296;DHT22;40758;54.038;11.684;2022-12-07T04:57:23;4.20;99.90
7296;DHT22;40758;54.038;11.684;2022-12-07T04:59:53;4.20;99.90
7296;DHT22;40758;54.038;11.684;2022-12-07T05:02:22;4.30;99.90
7296;DHT22;40758;54.038;11.684;2022-12-07T05:04:56;4.30;99.90
7296;DHT22;40758;54.038;11.684;2022-12-07T05:07:29;4.30;99.90
7296;DHT22;40758;54.038;11.684;2022-12-07T05:10:00;4.30;99.90
7296;DHT22;40758;54.038;11.684;2022-12-07T05:12:32;4.30;99.90
7296;DHT22;40758;54.038;11.684;2022-12-07T05:15:01;4.30;99.90
7296;DHT22;40758;54.038;11.684;2022-12-07T05:17:33;4.40;99.90
7296;DHT22;40758;54.038;11.684;2022-12-07T05:20:03;4.40;99.90
7296;DHT22;40758;54.038;11.684;2022-12-07T05:22:38;4.40;99.90
7296;DHT22;40758;54.038;11.684;2022-12-07T05:25:08;4.40;99.90
7296;DHT22;40758;54.038;11.684;2022-12-07T05:27:38;4.40;99.90
7296;DHT22;40758;54.038;11.684;2022-12-07T05:30:08;4.40;99.90
7296;DHT22;40758;54.038;11.684;2022-12-07T05:32:42;4.40;99.90
7296;DHT22;40758;54.038;11.684;2022-12-07T05:35:11;4.40;99.90
7296;DHT22;40758;54.038;11.684;2022-12-07T05:37:42;4.30;99.90
7296;DHT22;40758;54.038;11.684;2022-12-07T05:40:13;4.00;99.90
7296;DHT22;40758;54.038;11.684;2022-12-07T05:42:44;3.90;99.90
7296;DHT22;40758;54.038;11.684;2022-12-07T05:45:15;3.90;99.90
7296;DHT22;40758;54.038;11.684;2022-12-07T05:47:47;4.00;99.90
7296;DHT22;40758;54.038;11.684;2022-12-07T05:50:16;4.10;99.90
7296;DHT22;40758;54.038;11.684;2022-12-07T05:52:47;4.10;99.90
7296;DHT22;40758;54.038;11.684;2022-12-07T05:55:19;4.20;99.90
7296;DHT22;40758;54.038;11.684;2022-12-07T05:57:52;4.20;99.90
7296;DHT22;40758;54.038;11.684;2022-12-07T06:00:40;4.30;99.90
7296;DHT22;40758;54.038;11.684;2022-12-07T06:03:16;4.30;99.90
7296;DHT22;40758;54.038;11.684;2022-12-07T06:05:46;4.20;99.90
7296;DHT22;40758;54.038;11.684;2022-12-07T06:08:19;4.20;99.90
7296;DHT22;40758;54.038;11.684;2022-12-07T06:10:52;4.10;99.90
7296;DHT22;40758;54.038;11.684;2022-12-07T06:13:41;4.10;99.90
7296;DHT22;40758;54.038;11.684;2022-12-07T06:16:13;4.20;99.90
7296;DHT22;40758;54.038;11.684;2022-12-07T06:18:43;4.10;99.90
7296;DHT22;40758;54.038;11.684;2022-12-07T06:21:11;4.20;99.90
7296;DHT22;40758;54.038;11.684;2022-12-07T06:23:43;4.10;99.90
7296;DHT22;40758;54.038;11.684;2022-12-07T06:26:15;4.10;99.90
7296;DHT22;40758;54.038;11.684;2022-12-07T06:28:44;4.10;99.90
7296;DHT22;40758;54.038;11.684;2022-12-07T06:31:14;4.10;99.90
7296;DHT22;40758;54.038;11.684;2022-12-07T06:33:47;4.10;99.90
7296;DHT22;40758;54.038;11.684;2022-12-07T06:36:20;4.10;99.90
7296;DHT22;40758;54.038;11.684;2022-12-07T06:38:56;4.10;99.90
7296;DHT22;40758;54.038;11.684;2022-12-07T06:41:25;4.10;99.90
7296;DHT22;40758;54.038;11.684;2022-12-07T06:43:54;4.10;99.90
7296;DHT22;40758;54.038;11.684;2022-12-07T06:46:24;4.10;99.90
7296;DHT22;40758;54.038;11.684;2022-12-07T06:48:54;4.10;99.90
7296;DHT22;40758;54.038;11.684;2022-12-07T06:51:24;4.10;99.90
7296;DHT22;40758;54.038;11.684;2022-12-07T06:53:58;4.20;99.90
7296;DHT22;40758;54.038;11.684;2022-12-07T06:56:28;4.20;99.90
7296;DHT22;40758;54.038;11.684;2022-12-07T06:59:01;4.10;99.90
7296;DHT22;40758;54.038;11.684;2022-12-07T07:01:33;4.10;99.90
7296;DHT22;40758;54.038;11.684;2022-12-07T07:04:03;4.20;99.90
7296;DHT22;40758;54.038;11.684;2022-12-07T07:06:33;4.20;99.90
7296;DHT22;40758;54.038;11.684;2022-12-07T07:09:16;4.20;99.90
7296;DHT22;40758;54.038;11.684;2022-12-07T07:11:46;4.30;99.90
7296;DHT22;40758;54.038;11.684;2022-12-07T07:14:16;4.30;99.90
7296;DHT22;40758;54.038;11.684;2022-12-07T07:16:46;4.30;99.90
7296;DHT22;40758;54.038;11.684;2022-12-07T07:19:18;4.30;99.90
7296;DHT22;40758;54.038;11.684;2022-12-07T07:21:47;4.40;99.90
7296;DHT22;40758;54.038;11.684;2022-12-07T07:24:40;4.40;99.90
7296;DHT22;40758;54.038;11.684;2022-12-07T07:27:15;4.50;99.90
7296;DHT22;40758;54.038;11.684;2022-12-07T07:29:47;4.50;99.90
7296;DHT22;40758;54.038;11.684;2022-12-07T07:32:30;4.50;99.90
7296;DHT22;40758;54.038;11.684;2022-12-07T07:35:34;4.50;99.90
7296;DHT22;40758;54.038;11.684;2022-12-07T07:38:08;4.40;99.90
7296;DHT22;40758;54.038;11.684;2022-12-07T07:40:42;4.30;99.90
7296;DHT22;40758;54.038;11.684;2022-12-07T07:43:12;4.20;99.90
7296;DHT22;40758;54.038;11.684;2022-12-07T07:45:42;4.20;99.90
7296;DHT22;40758;54.038;11.684;2022-12-07T07:48:12;4.20;99.90
7296;DHT22;40758;54.038;11.684;2022-12-07T07:50:42;4.30;99.90
7296;DHT22;40758;54.038;11.684;2022-12-07T07:53:11;4.20;99.90
7296;DHT22;40758;54.038;11.684;2022-12-07T07:55:54;4.20;99.90
7296;DHT22;40758;54.038;11.684;2022-12-07T07:58:27;4.20;99.90
7296;DHT22;40758;54.038;11.684;2022-12-07T08:01:04;4.30;99.90
7296;DHT22;40758;54.038;11.684;2022-12-07T08:03:34;4.40;99.90
7296;DHT22;40758;54.038;11.684;2022-12-07T08:06:05;4.50;99.90
7296;DHT22;40758;54.038;11.684;2022-12-07T08:08:45;4.50;99.90
7296;DHT22;40758;54.038;11.684;2022-12-07T08:11:17;4.50;99.90
7296;DHT22;40758;54.038;11.684;2022-12-07T08:13:48;4.50;99.90
7296;DHT22;40758;54.038;11.684;2022-12-07T08:16:20;4.50;99.90
7296;DHT22;40758;54.038;11.684;2022-12-07T08:18:52;4.50;99.90
7296;DHT22;40758;54.038;11.684;2022-12-07T08:21:21;4.50;99.90
7296;DHT22;40758;54.038;11.684;2022-12-07T08:23:50;4.50;99.90
7296;DHT22;40758;54.038;11.684;2022-12-07T08:26:21;4.40;99.90
7296;DHT22;40758;54.038;11.684;2022-12-07T08:28:56;4.40;99.90
7296;DHT22;40758;54.038;11.684;2022-12-07T08:31:26;4.30;99.90
7296;DHT22;40758;54.038;11.684;2022-12-07T08:33:56;4.30;99.90
7296;DHT22;40758;54.038;11.684;2022-12-07T08:36:26;4.30;99.90
7296;DHT22;40758;54.038;11.684;2022-12-07T08:39:00;4.20;99.90
7296;DHT22;40758;54.038;11.684;2022-12-07T08:41:51;4.20;99.90
7296;DHT22;40758;54.038;11.684;2022-12-07T08:44:24;4.10;99.90
7296;DHT22;40758;54.038;11.684;2022-12-07T08:46:57;4.00;99.90
7296;DHT22;40758;54.038;11.684;2022-12-07T08:49:34;4.00;99.90
7296;DHT22;40758;54.038;11.684;2022-12-07T08:52:08;4.10;99.90
7296;DHT22;40758;54.038;11.684;2022-12-07T08:54:39;4.10;99.90
7296;DHT22;40758;54.038;11.684;2022-12-07T08:57:13;4.10;99.90
7296;DHT22;40758;54.038;11.684;2022-12-07T08:59:45;4.10;99.90
7296;DHT22;40758;54.038;11.684;2022-12-07T09:02:15;4.00;99.90
7296;DHT22;40758;54.038;11.684;2022-12-07T09:04:45;4.10;99.90
7296;DHT22;40758;54.038;11.684;2022-12-07T09:07:18;4.10;99.90
7296;DHT22;40758;54.038;11.684;2022-12-07T09:09:49;4.20;99.90
7296;DHT22;40758;54.038;11.684;2022-12-07T09:12:20;4.20;99.90
7296;DHT22;40758;54.038;11.684;2022-12-07T09:14:53;4.30;99.90
7296;DHT22;40758;54.038;11.684;2022-12-07T09:17:22;4.30;99.90
7296;DHT22;40758;54.038;11.684;2022-12-07T09:19:54;4.30;99.90
7296;DHT22;40758;54.038;11.684;2022-12-07T09:22:25;4.40;99.90
7296;DHT22;40758;54.038;11.684;2022-12-07T09:25:08;4.40;99.90
7296;DHT22;40758;54.038;11.684;2022-12-07T09:27:45;4.50;99.90
7296;DHT22;40758;54.038;11.684;2022-12-07T09:30:24;4.50;99.90
7296;DHT22;40758;54.038;11.684;2022-12-07T09:32:54;4.50;99.90
7296;DHT22;40758;54.038;11.684;2022-12-07T09:35:26;4.60;99.90
7296;DHT22;40758;54.038;11.684;2022-12-07T09:37:57;4.60;99.90
7296;DHT22;40758;54.038;11.684;2022-12-07T09:40:29;4.60;99.90
7296;DHT22;40758;54.038;11.684;2022-12-07T09:43:10;4.60;99.90
7296;DHT22;40758;54.038;11.684;2022-12-07T09:45:46;4.50;99.90
7296;DHT22;40758;54.038;11.684;2022-12-07T09:48:25;4.60;99.90
7296;DHT22;40758;54.038;11.684;2022-12-07T09:51:02;4.70;99.90
7296;DHT22;40758;54.038;11.684;2022-12-07T09:53:57;4.80;99.90
7296;DHT22;40758;54.038;11.684;2022-12-07T09:56:32;4.90;99.90
7296;DHT22;40758;54.038;11.684;2022-12-07T09:59:03;4.90;99.90
7296;DHT22;40758;54.038;11.684;2022-12-07T10:01:37;4.90;99.90
7296;DHT22;40758;54.038;11.684;2022-12-07T10:04:13;4.90;99.90
7296;DHT22;40758;54.038;11.684;2022-12-07T10:06:49;4.90;99.90
7296;DHT22;40758;54.038;11.684;2022-12-07T10:09:22;4.90;99.90
7296;DHT22;40758;54.038;11.684;2022-12-07T10:12:03;4.90;99.90
7296;DHT22;40758;54.038;11.684;2022-12-07T10:14:52;5.00;99.90
7296;DHT22;40758;54.038;11.684;2022-12-07T10:17:36;5.10;99.90
7296;DHT22;40758;54.038;11.684;2022-12-07T10:20:22;5.20;99.90
7296;DHT22;40758;54.038;11.684;2022-12-07T10:23:00;5.30;99.90
7296;DHT22;40758;54.038;11.684;2022-12-07T10:25:34;5.20;99.90
7296;DHT22;40758;54.038;11.684;2022-12-07T10:28:16;5.00;99.90
7296;DHT22;40758;54.038;11.684;2022-12-07T10:30:52;4.90;99.90
7296;DHT22;40758;54.038;11.684;2022-12-07T10:33:34;4.80;99.90
7296;DHT22;40758;54.038;11.684;2022-12-07T10:36:21;4.80;99.90
7296;DHT22;40758;54.038;11.684;2022-12-07T10:38:57;4.80;99.90
7296;DHT22;40758;54.038;11.684;2022-12-07T10:41:34;5.00;99.90
7296;DHT22;40758;54.038;11.684;2022-12-07T10:44:23;5.00;99.90
7296;DHT22;40758;54.038;11.684;2022-12-07T10:53:34;5.50;99.90
7296;DHT22;40758;54.038;11.684;2022-12-07T10:56:36;5.60;99.90
7296;DHT22;40758;54.038;11.684;2022-12-07T10:59:50;5.40;99.90
7296;DHT22;40758;54.038;11.684;2022-12-07T11:02:52;5.30;99.90
7296;DHT22;40758;54.038;11.684;2022-12-07T11:05:47;5.30;99.90
7296;DHT22;40758;54.038;11.684;2022-12-07T11:08:57;5.30;99.90
7296;DHT22;40758;54.038;11.684;2022-12-07T11:12:44;5.30;99.90
7296;DHT22;40758;54.038;11.684;2022-12-07T11:15:37;5.10;99.90
7296;DHT22;40758;54.038;11.684;2022-12-07T11:18:23;4.90;99.90
7296;DHT22;40758;54.038;11.684;2022-12-07T11:21:06;4.80;99.90
7296;DHT22;40758;54.038;11.684;2022-12-07T11:23:48;4.80;99.90
7296;DHT22;40758;54.038;11.684;2022-12-07T11:26:33;4.80;99.90
7296;DHT22;40758;54.038;11.684;2022-12-07T11:29:25;4.80;99.90
7296;DHT22;40758;54.038;11.684;2022-12-07T11:32:15;4.80;99.90
7296;DHT22;40758;54.038;11.684;2022-12-07T11:35:07;4.80;99.90
7296;DHT22;40758;54.038;11.684;2022-12-07T11:37:47;4.90;99.90
7296;DHT22;40758;54.038;11.684;2022-12-07T11:40:26;4.90;99.90
7296;DHT22;40758;54.038;11.684;2022-12-07T11:43:11;4.90;99.90
7296;DHT22;40758;54.038;11.684;2022-12-07T11:45:46;4.90;99.90
7296;DHT22;40758;54.038;11.684;2022-12-07T11:48:28;4.80;99.90
7296;DHT22;40758;54.038;11.684;2022-12-07T11:51:07;4.80;99.90
7296;DHT22;40758;54.038;11.684;2022-12-07T11:53:43;4.80;99.90
7296;DHT22;40758;54.038;11.684;2022-12-07T11:56:19;4.80;99.90
7296;DHT22;40758;54.038;11.684;2022-12-07T11:58:57;4.80;99.90
7296;DHT22;40758;54.038;11.684;2022-12-07T12:01:42;4.80;99.90
7296;DHT22;40758;54.038;11.684;2022-12-07T12:04:35;4.80;99.90
7296;DHT22;40758;54.038;11.684;2022-12-07T12:07:21;4.70;99.90
7296;DHT22;40758;54.038;11.684;2022-12-07T12:10:18;4.70;99.90
7296;DHT22;40758;54.038;11.684;2022-12-07T12:16:49;4.70;99.90
7296;DHT22;40758;54.038;11.684;2022-12-07T12:19:36;4.70;99.90
7296;DHT22;40758;54.038;11.684;2022-12-07T12:22:33;4.60;99.90
7296;DHT22;40758;54.038;11.684;2022-12-07T12:25:17;4.70;99.90
7296;DHT22;40758;54.038;11.684;2022-12-07T12:27:53;4.70;99.90
7296;DHT22;40758;54.038;11.684;2022-12-07T12:30:30;4.70;99.90
7296;DHT22;40758;54.038;11.684;2022-12-07T12:33:05;4.60;99.90
7296;DHT22;40758;54.038;11.684;2022-12-07T12:35:45;4.60;99.90
7296;DHT22;40758;54.038;11.684;2022-12-07T12:38:30;4.60;99.90
7296;DHT22;40758;54.038;11.684;2022-12-07T12:41:03;4.60;99.90
7296;DHT22;40758;54.038;11.684;2022-12-07T12:43:52;4.50;99.90
7296;DHT22;40758;54.038;11.684;2022-12-07T12:46:49;4.50;99.90
7296;DHT22;40758;54.038;11.684;2022-12-07T12:52:59;4.50;99.90
7296;DHT22;40758;54.038;11.684;2022-12-07T12:59:26;4.60;99.90
7296;DHT22;40758;54.038;11.684;2022-12-07T13:02:25;4.50;99.90
7296;DHT22;40758;54.038;11.684;2022-12-07T13:04:58;4.50;99.90
7296;DHT22;40758;54.038;11.684;2022-12-07T13:07:59;4.60;99.90
7296;DHT22;40758;54.038;11.684;2022-12-07T13:10:49;4.50;99.90
7296;DHT22;40758;54.038;11.684;2022-12-07T13:13:47;4.50;99.90
7296;DHT22;40758;54.038;11.684;2022-12-07T13:16:50;4.50;99.90
7296;DHT22;40758;54.038;11.684;2022-12-07T13:19:53;4.50;99.90
7296;DHT22;40758;54.038;11.684;2022-12-07T13:22:49;4.50;99.90
7296;DHT22;40758;54.038;11.684;2022-12-07T13:25:41;4.50;99.90
7296;DHT22;40758;54.038;11.684;2022-12-07T13:28:27;4.50;99.90
7296;DHT22;40758;54.038;11.684;2022-12-07T13:31:30;4.60;99.90
7296;DHT22;40758;54.038;11.684;2022-12-07T13:37:01;4.50;99.90
7296;DHT22;40758;54.038;11.684;2022-12-07T13:39:45;4.40;99.90
7296;DHT22;40758;54.038;11.684;2022-12-07T13:42:28;4.40;99.90
7296;DHT22;40758;54.038;11.684;2022-12-07T13:45:25;4.50;99.90
7296;DHT22;40758;54.038;11.684;2022-12-07T13:48:14;4.50;99.90
7296;DHT22;40758;54.038;11.684;2022-12-07T13:51:12;4.40;99.90
7296;DHT22;40758;54.038;11.684;2022-12-07T13:54:10;4.10;99.90
7296;DHT22;40758;54.038;11.684;2022-12-07T13:56:49;3.90;99.90
7296;DHT22;40758;54.038;11.684;2022-12-07T13:59:24;3.80;99.90
7296;DHT22;40758;54.038;11.684;2022-12-07T14:01:56;3.70;99.90
7296;DHT22;40758;54.038;11.684;2022-12-07T14:04:35;3.80;99.90
7296;DHT22;40758;54.038;11.684;2022-12-07T14:07:24;3.90;99.90
7296;DHT22;40758;54.038;11.684;2022-12-07T14:10:05;4.00;99.90
7296;DHT22;40758;54.038;11.684;2022-12-07T14:12:37;4.00;99.90
7296;DHT22;40758;54.038;11.684;2022-12-07T14:15:20;4.00;99.90
7296;DHT22;40758;54.038;11.684;2022-12-07T14:17:56;4.00;99.90
7296;DHT22;40758;54.038;11.684;2022-12-07T14:20:38;4.00;99.90
7296;DHT22;40758;54.038;11.684;2022-12-07T14:23:23;4.10;99.90
7296;DHT22;40758;54.038;11.684;2022-12-07T14:26:07;4.10;99.90
7296;DHT22;40758;54.038;11.684;2022-12-07T14:28:41;4.10;99.90
7296;DHT22;40758;54.038;11.684;2022-12-07T14:31:13;4.10;99.90
7296;DHT22;40758;54.038;11.684;2022-12-07T15:20:26;4.00;99.90
7296;DHT22;40758;54.038;11.684;2022-12-07T15:24:13;4.00;99.90
7296;DHT22;40758;54.038;11.684;2022-12-07T15:27:36;3.90;99.90
7296;DHT22;40758;54.038;11.684;2022-12-07T15:44:00;4.00;99.90
7296;DHT22;40758;54.038;11.684;2022-12-07T15:47:35;3.90;99.90
7296;DHT22;40758;54.038;11.684;2022-12-07T15:55:17;3.90;99.90
7296;DHT22;40758;54.038;11.684;2022-12-07T15:58:19;3.90;99.90
7296;DHT22;40758;54.038;11.684;2022-12-07T16:01:25;3.80;99.90
7296;DHT22;40758;54.038;11.684;2022-12-07T16:04:20;3.90;99.90
7296;DHT22;40758;54.038;11.684;2022-12-07T16:10:24;3.80;99.90
7296;DHT22;40758;54.038;11.684;2022-12-07T16:13:39;3.60;99.90
7296;DHT22;40758;54.038;11.684;2022-12-07T16:28:16;3.00;99.90
7296;DHT22;40758;54.038;11.684;2022-12-07T16:48:26;2.70;99.90
7296;DHT22;40758;54.038;11.684;2022-12-07T16:50:56;2.60;99.90
7296;DHT22;40758;54.038;11.684;2022-12-07T17:28:42;2.90;99.90
7296;DHT22;40758;54.038;11.684;2022-12-07T17:31:19;2.80;99.90
7296;DHT22;40758;54.038;11.684;2022-12-07T17:34:00;2.80;99.90
7296;DHT22;40758;54.038;11.684;2022-12-07T17:36:31;2.70;99.90
7296;DHT22;40758;54.038;11.684;2022-12-07T17:39:00;2.70;99.90
7296;DHT22;40758;54.038;11.684;2022-12-07T17:45:27;2.80;99.90
7296;DHT22;40758;54.038;11.684;2022-12-07T17:47:58;2.90;99.90
7296;DHT22;40758;54.038;11.684;2022-12-07T17:50:28;3.00;99.90
7296;DHT22;40758;54.038;11.684;2022-12-07T17:53:15;3.10;99.90
7296;DHT22;40758;54.038;11.684;2022-12-07T17:55:44;3.10;99.90
7296;DHT22;40758;54.038;11.684;2022-12-07T17:58:35;3.10;99.90
7296;DHT22;40758;54.038;11.684;2022-12-07T18:01:08;3.00;99.90
7296;DHT22;40758;54.038;11.684;2022-12-07T18:03:39;3.00;99.90
7296;DHT22;40758;54.038;11.684;2022-12-07T18:06:08;2.90;99.90
7296;DHT22;40758;54.038;11.684;2022-12-07T18:08:37;2.80;99.90
7296;DHT22;40758;54.038;11.684;2022-12-07T18:11:10;2.80;99.90
7296;DHT22;40758;54.038;11.684;2022-12-07T18:13:39;2.70;99.90
7296;DHT22;40758;54.038;11.684;2022-12-07T18:16:12;2.70;99.90
7296;DHT22;40758;54.038;11.684;2022-12-07T18:18:46;2.60;99.90
7296;DHT22;40758;54.038;11.684;2022-12-07T18:21:24;2.50;99.90
7296;DHT22;40758;54.038;11.684;2022-12-07T18:24:06;2.40;99.90
7296;DHT22;40758;54.038;11.684;2022-12-07T18:26:43;2.40;99.90
7296;DHT22;40758;54.038;11.684;2022-12-07T18:29:15;2.50;99.90
7296;DHT22;40758;54.038;11.684;2022-12-07T18:31:46;2.50;99.90
7296;DHT22;40758;54.038;11.684;2022-12-07T18:34:18;2.60;99.90
7296;DHT22;40758;54.038;11.684;2022-12-07T18:36:48;2.70;99.90
7296;DHT22;40758;54.038;11.684;2022-12-07T18:39:18;2.70;99.90
7296;DHT22;40758;54.038;11.684;2022-12-07T18:41:47;2.80;99.90
7296;DHT22;40758;54.038;11.684;2022-12-07T18:44:16;2.80;99.90
7296;DHT22;40758;54.038;11.684;2022-12-07T18:46:49;2.70;99.90
7296;DHT22;40758;54.038;11.684;2022-12-07T18:49:35;2.70;99.90
7296;DHT22;40758;54.038;11.684;2022-12-07T18:52:35;2.70;99.90
7296;DHT22;40758;54.038;11.684;2022-12-07T18:55:48;2.70;99.90
7296;DHT22;40758;54.038;11.684;2022-12-07T18:58:17;2.70;99.90
7296;DHT22;40758;54.038;11.684;2022-12-07T19:00:46;2.80;99.90
7296;DHT22;40758;54.038;11.684;2022-12-07T19:03:15;2.80;99.90
7296;DHT22;40758;54.038;11.684;2022-12-07T19:05:45;2.80;99.90
7296;DHT22;40758;54.038;11.684;2022-12-07T19:08:15;2.80;99.90
7296;DHT22;40758;54.038;11.684;2022-12-07T19:10:44;2.80;99.90
7296;DHT22;40758;54.038;11.684;2022-12-07T19:13:13;2.90;99.90
7296;DHT22;40758;54.038;11.684;2022-12-07T19:15:42;2.90;99.90
7296;DHT22;40758;54.038;11.684;2022-12-07T19:18:11;2.90;99.90
7296;DHT22;40758;54.038;11.684;2022-12-07T19:20:40;2.90;99.90
7296;DHT22;40758;54.038;11.684;2022-12-07T19:23:10;2.90;99.90
7296;DHT22;40758;54.038;11.684;2022-12-07T19:25:39;2.90;99.90
7296;DHT22;40758;54.038;11.684;2022-12-07T19:28:09;2.90;99.90
7296;DHT22;40758;54.038;11.684;2022-12-07T19:30:38;2.90;99.90
7296;DHT22;40758;54.038;11.684;2022-12-07T19:33:07;3.00;99.90